createdAt,value
2022-07-25T00:00:01.938Z,18.6
2022-07-25T00:05:00.811Z,18.5
2022-07-25T00:15:00.784Z,18.5
2022-07-25T00:25:01.822Z,18.4
2022-07-25T00:30:01.752Z,18.4
2022-07-25T00:45:00.787Z,18.4
2022-07-25T00:50:00.728Z,18.3
2022-07-25T00:55:00.658Z,18.4
2022-07-25T01:00:00.922Z,18.4
2022-07-25T01:15:00.758Z,18.5
2022-07-25T01:30:02.876Z,18.6
2022-07-25T01:45:00.741Z,18.6
2022-07-25T02:00:01.974Z,18.6
2022-07-25T02:10:00.853Z,18.7
2022-07-25T02:15:00.695Z,18.7
2022-07-25T02:20:00.827Z,18.9
2022-07-25T02:25:00.741Z,19.0
2022-07-25T02:30:00.762Z,19.2
2022-07-25T02:35:00.735Z,19.3
2022-07-25T02:40:00.828Z,19.5
2022-07-25T02:45:00.704Z,19.5
2022-07-25T02:50:00.830Z,19.6
2022-07-25T02:55:00.705Z,19.7
2022-07-25T03:00:01.929Z,19.7
2022-07-25T03:10:00.882Z,19.6
2022-07-25T03:15:00.777Z,19.5
2022-07-25T03:25:00.715Z,19.4
2022-07-25T03:30:00.705Z,19.4
2022-07-25T03:45:00.721Z,19.4
2022-07-25T04:00:01.948Z,19.4
2022-07-25T04:15:00.732Z,19.4
2022-07-25T04:30:00.756Z,19.4
2022-07-25T04:40:00.739Z,19.5
2022-07-25T04:45:00.735Z,19.5
2022-07-25T04:50:00.736Z,19.6
2022-07-25T04:55:00.786Z,19.7
2022-07-25T05:00:02.185Z,19.8
2022-07-25T05:05:01.808Z,19.9
2022-07-25T05:10:05.853Z,20.1
2022-07-25T05:15:00.785Z,20.2
2022-07-25T05:20:00.748Z,20.4
2022-07-25T05:25:15.557Z,20.6
2022-07-25T05:30:00.750Z,20.8
2022-07-25T05:35:00.745Z,21.0
2022-07-25T05:40:00.750Z,21.2
2022-07-25T05:45:00.748Z,21.4
2022-07-25T05:50:00.795Z,21.5
2022-07-25T06:00:02.744Z,21.7
2022-07-25T06:05:00.772Z,21.8
2022-07-25T06:10:00.946Z,22.1
2022-07-25T06:15:00.757Z,22.4
2022-07-25T06:20:00.829Z,22.8
2022-07-25T06:25:00.759Z,23.0
2022-07-25T06:30:00.896Z,23.1
2022-07-25T06:45:00.893Z,23.0
2022-07-25T07:00:01.933Z,23.0
2022-07-25T07:15:00.934Z,23.2
2022-07-25T07:20:01.088Z,23.3
2022-07-25T07:25:00.778Z,23.5
2022-07-25T07:30:00.847Z,23.6
2022-07-25T07:35:00.805Z,23.7
2022-07-25T07:40:00.938Z,23.8
2022-07-25T07:45:00.808Z,23.9
2022-07-25T07:55:00.967Z,24.0
2022-07-25T08:00:02.394Z,24.2
2022-07-25T08:10:00.913Z,24.4
2022-07-25T08:15:00.828Z,24.5
2022-07-25T08:20:14.590Z,24.8
2022-07-25T08:25:00.741Z,25.1
2022-07-25T08:30:00.900Z,25.5
2022-07-25T08:35:00.803Z,25.9
2022-07-25T08:40:00.926Z,26.3
2022-07-25T08:45:00.800Z,26.5
2022-07-25T08:50:04.324Z,26.6
2022-07-25T09:00:02.016Z,26.6
2022-07-25T09:05:00.866Z,26.5
2022-07-25T09:10:00.904Z,26.7
2022-07-25T09:15:00.832Z,26.9
2022-07-25T09:20:01.021Z,27.1
2022-07-25T09:25:00.875Z,27.3
2022-07-25T09:30:00.881Z,27.5
2022-07-25T09:40:01.261Z,27.6
2022-07-25T09:45:01.005Z,27.8
2022-07-25T09:50:00.937Z,28.0
2022-07-25T09:55:00.811Z,28.2
2022-07-25T10:00:02.099Z,28.4
2022-07-25T10:05:00.809Z,28.5
2022-07-25T10:15:01.025Z,28.5
2022-07-25T10:20:01.029Z,28.7
2022-07-25T10:25:01.020Z,28.8
2022-07-25T10:30:00.953Z,28.8
2022-07-25T10:40:00.888Z,28.9
2022-07-25T10:45:00.827Z,28.8
2022-07-25T10:50:40.184Z,28.7
2022-07-25T10:55:00.802Z,28.8
2022-07-25T11:00:02.158Z,28.7
2022-07-25T11:05:00.831Z,28.6
2022-07-25T11:10:00.910Z,28.7
2022-07-25T11:15:00.863Z,28.7
2022-07-25T11:20:00.903Z,28.8
2022-07-25T11:25:00.834Z,28.9
2022-07-25T11:30:00.973Z,29.0
2022-07-25T11:35:00.906Z,28.9
2022-07-25T11:40:00.979Z,28.7
2022-07-25T11:45:00.846Z,28.5
2022-07-25T11:55:00.973Z,28.6
2022-07-25T12:00:02.291Z,28.7
2022-07-25T12:05:00.857Z,28.9
2022-07-25T12:10:00.978Z,29.0
2022-07-25T12:15:00.877Z,28.9
2022-07-25T12:20:00.992Z,28.7
2022-07-25T12:25:00.853Z,28.5
2022-07-25T12:30:00.859Z,28.0
2022-07-25T12:35:00.857Z,27.7
2022-07-25T12:40:00.856Z,27.2
2022-07-25T12:45:00.854Z,26.8
2022-07-25T12:50:00.857Z,26.3
2022-07-25T12:55:00.909Z,26.2
2022-07-25T13:00:02.144Z,26.0
2022-07-25T13:10:01.136Z,25.9
2022-07-25T13:15:00.882Z,25.8
2022-07-25T13:20:01.068Z,25.7
2022-07-25T13:25:00.874Z,25.6
2022-07-25T13:30:00.863Z,25.4
2022-07-25T13:40:00.931Z,25.1
2022-07-25T13:45:00.865Z,24.9
2022-07-25T13:50:00.989Z,24.6
2022-07-25T13:55:00.899Z,24.4
2022-07-25T14:00:02.545Z,24.2
2022-07-25T14:10:01.018Z,24.1
2022-07-25T14:15:00.968Z,24.0
2022-07-25T14:25:00.953Z,23.9
2022-07-25T14:30:01.043Z,24.0
2022-07-25T14:45:00.957Z,24.1
2022-07-25T14:50:01.082Z,24.0
2022-07-25T14:55:00.945Z,23.9
2022-07-25T15:00:07.055Z,23.6
2022-07-25T15:05:01.016Z,23.5
2022-07-25T15:10:05.965Z,23.4
2022-07-25T15:15:01.232Z,23.5
2022-07-25T15:20:00.962Z,23.7
2022-07-25T15:50:01.287Z,24.0
2022-07-25T16:00:02.006Z,23.9
2022-07-25T16:10:00.957Z,23.7
2022-07-25T16:15:00.684Z,23.6
2022-07-25T16:20:01.211Z,23.4
2022-07-25T16:25:00.658Z,23.3
2022-07-25T16:30:00.725Z,23.1
2022-07-25T16:45:00.735Z,23.1
2022-07-25T17:00:00.994Z,23.0
2022-07-25T17:05:00.723Z,22.9
2022-07-25T17:15:00.781Z,22.8
2022-07-25T17:20:00.810Z,22.7
2022-07-25T17:30:02.148Z,22.6
2022-07-25T17:35:00.749Z,22.5
2022-07-25T17:40:01.722Z,22.4
2022-07-25T17:45:00.872Z,22.2
2022-07-25T17:50:00.688Z,22.0
2022-07-25T17:55:00.692Z,21.9
2022-07-25T18:00:00.902Z,21.7
2022-07-25T18:05:00.750Z,21.6
2022-07-25T18:10:00.705Z,21.5
2022-07-25T18:15:00.740Z,21.5
2022-07-25T18:30:00.881Z,21.4
2022-07-25T18:40:00.697Z,21.3
2022-07-25T18:45:00.894Z,21.2
2022-07-25T18:50:00.700Z,21.0
2022-07-25T18:55:00.708Z,20.9
2022-07-25T19:00:03.276Z,20.7
2022-07-25T19:05:00.907Z,20.6
2022-07-25T19:10:00.712Z,20.4
2022-07-25T19:15:00.817Z,20.3
2022-07-25T19:20:00.732Z,20.1
2022-07-25T19:25:00.911Z,20.0
2022-07-25T19:30:00.722Z,19.9
2022-07-25T19:35:00.795Z,19.7
2022-07-25T19:40:00.723Z,19.6
2022-07-25T19:45:00.735Z,19.5
2022-07-25T19:50:00.722Z,19.4
2022-07-25T19:55:00.785Z,19.3
2022-07-25T20:00:00.916Z,19.2
2022-07-25T20:10:00.724Z,19.1
2022-07-25T20:15:00.774Z,19.1
2022-07-25T20:20:00.801Z,19.0
2022-07-25T20:25:00.799Z,18.9
2022-07-25T20:30:00.732Z,18.8
2022-07-25T20:40:00.736Z,18.7
2022-07-25T20:45:00.800Z,18.6
2022-07-25T21:00:02.350Z,18.6
2022-07-25T21:05:00.767Z,18.7
2022-07-25T21:15:00.915Z,18.6
2022-07-25T21:30:01.040Z,18.5
2022-07-25T21:40:00.903Z,18.6
2022-07-25T21:45:00.764Z,18.6
2022-07-25T21:55:00.893Z,18.7
2022-07-25T22:00:00.984Z,18.6
2022-07-25T22:10:00.899Z,18.4
2022-07-25T22:15:00.809Z,18.4
2022-07-25T22:20:00.952Z,18.2
2022-07-25T22:25:00.805Z,18.1
2022-07-25T22:30:00.876Z,18.0
2022-07-25T22:35:00.842Z,17.9
2022-07-25T22:40:01.727Z,17.8
2022-07-25T22:45:00.783Z,17.6
2022-07-25T22:50:00.917Z,17.5
2022-07-25T23:00:01.943Z,17.4
2022-07-25T23:10:00.879Z,17.3
2022-07-25T23:15:00.856Z,17.3
2022-07-25T23:30:00.890Z,17.4
2022-07-25T23:40:01.006Z,17.5
2022-07-25T23:45:01.074Z,17.5
2022-07-25T23:50:01.940Z,17.6
